sensor_id;sensor_type;location;lat;lon;timestamp;temperature;humidity
27226;DHT22;14732;51.074;3.788;2023-07-08T00:00:49;21.80;99.90
27226;DHT22;14732;51.074;3.788;2023-07-08T00:03:16;21.70;99.90
27226;DHT22;14732;51.074;3.788;2023-07-08T00:05:42;21.60;99.90
27226;DHT22;14732;51.074;3.788;2023-07-08T00:08:16;21.60;99.90
27226;DHT22;14732;51.074;3.788;2023-07-08T00:10:41;21.60;99.90
27226;DHT22;14732;51.074;3.788;2023-07-08T00:13:08;21.60;99.90
27226;DHT22;14732;51.074;3.788;2023-07-08T00:15:35;21.50;99.90
27226;DHT22;14732;51.074;3.788;2023-07-08T00:18:14;21.40;99.90
27226;DHT22;14732;51.074;3.788;2023-07-08T00:20:50;21.40;99.90
27226;DHT22;14732;51.074;3.788;2023-07-08T00:23:16;21.30;99.90
27226;DHT22;14732;51.074;3.788;2023-07-08T00:25:47;21.30;99.90
27226;DHT22;14732;51.074;3.788;2023-07-08T00:28:18;21.20;99.90
27226;DHT22;14732;51.074;3.788;2023-07-08T00:30:45;21.20;99.90
27226;DHT22;14732;51.074;3.788;2023-07-08T00:33:10;21.20;99.90
27226;DHT22;14732;51.074;3.788;2023-07-08T00:35:44;21.20;99.90
27226;DHT22;14732;51.074;3.788;2023-07-08T00:38:23;21.10;99.90
27226;DHT22;14732;51.074;3.788;2023-07-08T00:51:34;20.80;99.90
27226;DHT22;14732;51.074;3.788;2023-07-08T00:54:00;20.80;99.90
27226;DHT22;14732;51.074;3.788;2023-07-08T00:56:55;20.70;99.90
27226;DHT22;14732;51.074;3.788;2023-07-08T00:59:42;20.70;99.90
27226;DHT22;14732;51.074;3.788;2023-07-08T01:02:11;20.60;99.90
27226;DHT22;14732;51.074;3.788;2023-07-08T01:04:46;20.60;99.90
27226;DHT22;14732;51.074;3.788;2023-07-08T01:07:13;20.60;99.90
27226;DHT22;14732;51.074;3.788;2023-07-08T01:09:50;20.60;99.90
27226;DHT22;14732;51.074;3.788;2023-07-08T01:12:19;20.60;99.90
27226;DHT22;14732;51.074;3.788;2023-07-08T01:14:47;20.60;99.90
27226;DHT22;14732;51.074;3.788;2023-07-08T01:17:13;20.50;99.90
27226;DHT22;14732;51.074;3.788;2023-07-08T01:19:43;20.40;99.90
27226;DHT22;14732;51.074;3.788;2023-07-08T01:22:10;20.40;99.90
27226;DHT22;14732;51.074;3.788;2023-07-08T01:24:38;20.30;99.90
27226;DHT22;14732;51.074;3.788;2023-07-08T01:27:07;20.30;99.90
27226;DHT22;14732;51.074;3.788;2023-07-08T01:29:33;20.20;99.90
27226;DHT22;14732;51.074;3.788;2023-07-08T01:32:00;20.20;99.90
27226;DHT22;14732;51.074;3.788;2023-07-08T01:34:29;20.10;99.90
27226;DHT22;14732;51.074;3.788;2023-07-08T01:36:56;20.10;99.90
27226;DHT22;14732;51.074;3.788;2023-07-08T01:39:24;20.10;99.90
27226;DHT22;14732;51.074;3.788;2023-07-08T01:41:50;20.10;99.90
27226;DHT22;14732;51.074;3.788;2023-07-08T01:44:29;20.10;99.90
27226;DHT22;14732;51.074;3.788;2023-07-08T01:47:00;20.10;99.90
27226;DHT22;14732;51.074;3.788;2023-07-08T01:49:28;20.00;99.90
27226;DHT22;14732;51.074;3.788;2023-07-08T01:51:55;19.90;99.90
27226;DHT22;14732;51.074;3.788;2023-07-08T01:54:21;19.90;99.90
27226;DHT22;14732;51.074;3.788;2023-07-08T01:56:47;19.90;99.90
27226;DHT22;14732;51.074;3.788;2023-07-08T01:59:17;19.90;99.90
27226;DHT22;14732;51.074;3.788;2023-07-08T02:01:42;19.90;99.90
27226;DHT22;14732;51.074;3.788;2023-07-08T02:04:08;19.80;99.90
27226;DHT22;14732;51.074;3.788;2023-07-08T02:06:34;19.70;99.90
27226;DHT22;14732;51.074;3.788;2023-07-08T02:09:02;19.60;99.90
27226;DHT22;14732;51.074;3.788;2023-07-08T02:11:28;19.60;99.90
27226;DHT22;14732;51.074;3.788;2023-07-08T02:13:53;19.60;99.90
27226;DHT22;14732;51.074;3.788;2023-07-08T02:16:19;19.60;99.90
27226;DHT22;14732;51.074;3.788;2023-07-08T02:18:45;19.60;99.90
27226;DHT22;14732;51.074;3.788;2023-07-08T02:21:13;19.50;99.90
27226;DHT22;14732;51.074;3.788;2023-07-08T02:23:48;19.50;99.90
27226;DHT22;14732;51.074;3.788;2023-07-08T02:26:14;19.50;99.90
27226;DHT22;14732;51.074;3.788;2023-07-08T02:28:40;19.40;99.90
27226;DHT22;14732;51.074;3.788;2023-07-08T02:31:06;19.40;99.90
27226;DHT22;14732;51.074;3.788;2023-07-08T02:33:32;19.40;99.90
27226;DHT22;14732;51.074;3.788;2023-07-08T02:35:59;19.30;99.90
27226;DHT22;14732;51.074;3.788;2023-07-08T02:38:26;19.30;99.90
27226;DHT22;14732;51.074;3.788;2023-07-08T02:40:51;19.20;99.90
27226;DHT22;14732;51.074;3.788;2023-07-08T02:43:18;19.30;99.90
27226;DHT22;14732;51.074;3.788;2023-07-08T02:45:44;19.30;99.90
27226;DHT22;14732;51.074;3.788;2023-07-08T02:48:10;19.20;99.90
27226;DHT22;14732;51.074;3.788;2023-07-08T02:50:35;19.20;99.90
27226;DHT22;14732;51.074;3.788;2023-07-08T02:53:01;19.20;99.90
27226;DHT22;14732;51.074;3.788;2023-07-08T02:55:26;19.10;99.90
27226;DHT22;14732;51.074;3.788;2023-07-08T02:57:52;19.10;99.90
27226;DHT22;14732;51.074;3.788;2023-07-08T03:00:18;19.00;99.90
27226;DHT22;14732;51.074;3.788;2023-07-08T03:02:45;19.00;99.90
27226;DHT22;14732;51.074;3.788;2023-07-08T03:05:11;18.90;99.90
27226;DHT22;14732;51.074;3.788;2023-07-08T03:07:37;18.90;99.90
27226;DHT22;14732;51.074;3.788;2023-07-08T03:10:03;18.90;99.90
27226;DHT22;14732;51.074;3.788;2023-07-08T03:12:29;18.80;99.90
27226;DHT22;14732;51.074;3.788;2023-07-08T03:14:54;18.80;99.90
27226;DHT22;14732;51.074;3.788;2023-07-08T03:17:20;18.80;99.90
27226;DHT22;14732;51.074;3.788;2023-07-08T03:19:45;18.80;99.90
27226;DHT22;14732;51.074;3.788;2023-07-08T03:22:11;18.80;99.90
27226;DHT22;14732;51.074;3.788;2023-07-08T03:24:37;18.70;99.90
27226;DHT22;14732;51.074;3.788;2023-07-08T03:27:07;18.70;99.90
27226;DHT22;14732;51.074;3.788;2023-07-08T03:29:33;18.70;99.90
27226;DHT22;14732;51.074;3.788;2023-07-08T03:31:59;18.70;99.90
27226;DHT22;14732;51.074;3.788;2023-07-08T03:34:24;18.70;99.90
27226;DHT22;14732;51.074;3.788;2023-07-08T03:36:51;18.70;99.90
27226;DHT22;14732;51.074;3.788;2023-07-08T03:39:22;18.60;99.90
27226;DHT22;14732;51.074;3.788;2023-07-08T03:41:50;18.60;99.90
27226;DHT22;14732;51.074;3.788;2023-07-08T03:44:16;18.50;99.90
27226;DHT22;14732;51.074;3.788;2023-07-08T03:46:44;18.60;99.90
27226;DHT22;14732;51.074;3.788;2023-07-08T03:49:10;18.60;99.90
27226;DHT22;14732;51.074;3.788;2023-07-08T03:51:38;18.60;99.90
27226;DHT22;14732;51.074;3.788;2023-07-08T03:54:06;18.60;99.90
27226;DHT22;14732;51.074;3.788;2023-07-08T03:56:32;18.60;99.90
27226;DHT22;14732;51.074;3.788;2023-07-08T03:58:58;18.60;99.90
27226;DHT22;14732;51.074;3.788;2023-07-08T04:01:25;18.50;99.90
27226;DHT22;14732;51.074;3.788;2023-07-08T04:03:55;18.40;99.90
27226;DHT22;14732;51.074;3.788;2023-07-08T04:06:22;18.40;99.90
27226;DHT22;14732;51.074;3.788;2023-07-08T04:08:48;18.40;99.90
27226;DHT22;14732;51.074;3.788;2023-07-08T04:11:17;18.50;99.90
27226;DHT22;14732;51.074;3.788;2023-07-08T04:13:43;18.60;99.90
27226;DHT22;14732;51.074;3.788;2023-07-08T04:16:16;18.50;99.90
27226;DHT22;14732;51.074;3.788;2023-07-08T04:18:42;18.50;99.90
27226;DHT22;14732;51.074;3.788;2023-07-08T04:21:08;18.50;99.90
27226;DHT22;14732;51.074;3.788;2023-07-08T04:23:33;18.50;99.90
27226;DHT22;14732;51.074;3.788;2023-07-08T04:25:59;18.40;99.90
27226;DHT22;14732;51.074;3.788;2023-07-08T04:28:25;18.50;99.90
27226;DHT22;14732;51.074;3.788;2023-07-08T04:30:51;18.50;99.90
27226;DHT22;14732;51.074;3.788;2023-07-08T04:33:17;18.60;99.90
27226;DHT22;14732;51.074;3.788;2023-07-08T04:35:43;18.70;99.90
27226;DHT22;14732;51.074;3.788;2023-07-08T04:38:22;18.70;99.90
27226;DHT22;14732;51.074;3.788;2023-07-08T04:40:49;18.70;99.90
27226;DHT22;14732;51.074;3.788;2023-07-08T04:43:16;18.80;99.90
27226;DHT22;14732;51.074;3.788;2023-07-08T04:45:44;18.90;99.90
27226;DHT22;14732;51.074;3.788;2023-07-08T04:48:15;18.90;99.90
27226;DHT22;14732;51.074;3.788;2023-07-08T04:50:41;19.00;99.90
27226;DHT22;14732;51.074;3.788;2023-07-08T04:53:07;19.00;99.90
27226;DHT22;14732;51.074;3.788;2023-07-08T04:55:35;19.10;99.90
27226;DHT22;14732;51.074;3.788;2023-07-08T04:58:01;19.10;99.90
27226;DHT22;14732;51.074;3.788;2023-07-08T05:00:28;19.20;99.90
27226;DHT22;14732;51.074;3.788;2023-07-08T05:02:53;19.30;99.90
27226;DHT22;14732;51.074;3.788;2023-07-08T05:05:20;19.70;99.90
27226;DHT22;14732;51.074;3.788;2023-07-08T05:07:45;20.80;99.90
27226;DHT22;14732;51.074;3.788;2023-07-08T05:10:11;22.20;99.90
27226;DHT22;14732;51.074;3.788;2023-07-08T05:12:37;23.70;99.90
27226;DHT22;14732;51.074;3.788;2023-07-08T05:15:03;25.10;99.90
27226;DHT22;14732;51.074;3.788;2023-07-08T05:17:29;26.30;99.90
27226;DHT22;14732;51.074;3.788;2023-07-08T05:19:55;27.10;99.90
27226;DHT22;14732;51.074;3.788;2023-07-08T05:22:23;27.50;99.90
27226;DHT22;14732;51.074;3.788;2023-07-08T05:24:52;28.40;99.90
27226;DHT22;14732;51.074;3.788;2023-07-08T05:27:24;29.40;99.90
27226;DHT22;14732;51.074;3.788;2023-07-08T05:29:50;30.20;99.90
27226;DHT22;14732;51.074;3.788;2023-07-08T05:32:17;30.70;96.40
27226;DHT22;14732;51.074;3.788;2023-07-08T05:34:44;31.30;97.10
27226;DHT22;14732;51.074;3.788;2023-07-08T05:37:10;32.40;95.30
27226;DHT22;14732;51.074;3.788;2023-07-08T05:39:36;33.20;93.60
27226;DHT22;14732;51.074;3.788;2023-07-08T05:42:02;34.00;91.80
27226;DHT22;14732;51.074;3.788;2023-07-08T05:44:28;34.70;86.80
27226;DHT22;14732;51.074;3.788;2023-07-08T05:46:54;35.20;84.80
27226;DHT22;14732;51.074;3.788;2023-07-08T05:49:20;35.30;80.30
27226;DHT22;14732;51.074;3.788;2023-07-08T05:51:46;35.90;77.80
27226;DHT22;14732;51.074;3.788;2023-07-08T05:54:13;36.30;75.60
27226;DHT22;14732;51.074;3.788;2023-07-08T05:56:39;36.70;74.30
27226;DHT22;14732;51.074;3.788;2023-07-08T05:59:04;37.00;71.60
27226;DHT22;14732;51.074;3.788;2023-07-08T06:01:30;37.50;70.50
27226;DHT22;14732;51.074;3.788;2023-07-08T06:03:58;38.00;69.80
27226;DHT22;14732;51.074;3.788;2023-07-08T06:06:26;37.30;67.60
27226;DHT22;14732;51.074;3.788;2023-07-08T06:08:53;38.00;68.30
27226;DHT22;14732;51.074;3.788;2023-07-08T06:11:21;38.30;68.70
27226;DHT22;14732;51.074;3.788;2023-07-08T06:13:56;39.10;65.50
27226;DHT22;14732;51.074;3.788;2023-07-08T06:16:23;39.70;62.60
27226;DHT22;14732;51.074;3.788;2023-07-08T06:18:49;40.10;61.80
27226;DHT22;14732;51.074;3.788;2023-07-08T06:21:15;40.80;60.10
27226;DHT22;14732;51.074;3.788;2023-07-08T06:23:42;41.30;58.60
27226;DHT22;14732;51.074;3.788;2023-07-08T06:26:07;41.50;59.40
27226;DHT22;14732;51.074;3.788;2023-07-08T06:28:33;42.00;56.80
27226;DHT22;14732;51.074;3.788;2023-07-08T06:31:01;42.30;55.20
27226;DHT22;14732;51.074;3.788;2023-07-08T06:33:27;42.70;56.10
27226;DHT22;14732;51.074;3.788;2023-07-08T06:36:00;43.20;54.60
27226;DHT22;14732;51.074;3.788;2023-07-08T06:38:26;43.20;54.10
27226;DHT22;14732;51.074;3.788;2023-07-08T06:40:51;42.70;54.10
27226;DHT22;14732;51.074;3.788;2023-07-08T06:43:17;41.30;55.00
27226;DHT22;14732;51.074;3.788;2023-07-08T06:45:43;40.40;55.30
27226;DHT22;14732;51.074;3.788;2023-07-08T06:48:09;38.60;58.20
27226;DHT22;14732;51.074;3.788;2023-07-08T06:50:35;37.40;60.10
27226;DHT22;14732;51.074;3.788;2023-07-08T06:53:00;36.50;63.00
27226;DHT22;14732;51.074;3.788;2023-07-08T06:55:26;34.80;64.40
27226;DHT22;14732;51.074;3.788;2023-07-08T06:57:52;33.80;66.00
27226;DHT22;14732;51.074;3.788;2023-07-08T07:00:18;33.50;68.90
27226;DHT22;14732;51.074;3.788;2023-07-08T07:02:44;33.50;70.00
27226;DHT22;14732;51.074;3.788;2023-07-08T07:05:09;33.00;69.20
27226;DHT22;14732;51.074;3.788;2023-07-08T07:07:35;32.80;70.90
27226;DHT22;14732;51.074;3.788;2023-07-08T07:10:01;32.30;71.50
27226;DHT22;14732;51.074;3.788;2023-07-08T07:12:28;31.80;72.60
27226;DHT22;14732;51.074;3.788;2023-07-08T07:14:54;31.60;74.30
27226;DHT22;14732;51.074;3.788;2023-07-08T07:17:24;31.40;74.70
27226;DHT22;14732;51.074;3.788;2023-07-08T07:19:50;31.20;74.30
27226;DHT22;14732;51.074;3.788;2023-07-08T07:22:16;30.60;76.80
27226;DHT22;14732;51.074;3.788;2023-07-08T07:24:42;30.20;76.30
27226;DHT22;14732;51.074;3.788;2023-07-08T07:27:08;30.00;77.40
27226;DHT22;14732;51.074;3.788;2023-07-08T07:29:45;29.50;78.10
27226;DHT22;14732;51.074;3.788;2023-07-08T07:32:13;29.30;80.60
27226;DHT22;14732;51.074;3.788;2023-07-08T07:34:39;29.60;84.00
27226;DHT22;14732;51.074;3.788;2023-07-08T07:37:15;29.60;80.70
27226;DHT22;14732;51.074;3.788;2023-07-08T07:39:42;29.70;79.60
27226;DHT22;14732;51.074;3.788;2023-07-08T07:42:08;29.80;82.50
27226;DHT22;14732;51.074;3.788;2023-07-08T07:44:34;29.30;82.00
27226;DHT22;14732;51.074;3.788;2023-07-08T07:47:02;29.30;85.00
27226;DHT22;14732;51.074;3.788;2023-07-08T07:49:28;29.80;82.80
27226;DHT22;14732;51.074;3.788;2023-07-08T07:51:54;30.00;82.60
27226;DHT22;14732;51.074;3.788;2023-07-08T07:54:19;30.10;85.20
27226;DHT22;14732;51.074;3.788;2023-07-08T07:56:45;30.30;85.50
27226;DHT22;14732;51.074;3.788;2023-07-08T07:59:11;30.10;87.60
27226;DHT22;14732;51.074;3.788;2023-07-08T08:01:37;30.20;84.20
27226;DHT22;14732;51.074;3.788;2023-07-08T08:04:03;30.00;85.80
27226;DHT22;14732;51.074;3.788;2023-07-08T08:06:29;29.90;85.70
27226;DHT22;14732;51.074;3.788;2023-07-08T08:08:55;29.70;88.70
27226;DHT22;14732;51.074;3.788;2023-07-08T08:11:23;29.60;86.50
27226;DHT22;14732;51.074;3.788;2023-07-08T08:13:51;29.80;86.40
27226;DHT22;14732;51.074;3.788;2023-07-08T08:16:17;29.90;84.80
27226;DHT22;14732;51.074;3.788;2023-07-08T08:18:42;29.80;86.00
27226;DHT22;14732;51.074;3.788;2023-07-08T08:21:08;29.60;89.10
27226;DHT22;14732;51.074;3.788;2023-07-08T08:23:33;29.70;89.90
27226;DHT22;14732;51.074;3.788;2023-07-08T08:25:59;29.90;87.30
27226;DHT22;14732;51.074;3.788;2023-07-08T08:28:25;30.10;87.10
27226;DHT22;14732;51.074;3.788;2023-07-08T08:30:50;30.20;87.80
27226;DHT22;14732;51.074;3.788;2023-07-08T08:33:17;30.40;87.30
27226;DHT22;14732;51.074;3.788;2023-07-08T08:35:43;30.60;86.80
27226;DHT22;14732;51.074;3.788;2023-07-08T08:38:10;31.00;85.90
27226;DHT22;14732;51.074;3.788;2023-07-08T08:40:36;32.00;82.80
27226;DHT22;14732;51.074;3.788;2023-07-08T08:43:09;33.90;80.10
27226;DHT22;14732;51.074;3.788;2023-07-08T08:48:30;38.80;70.00
27226;DHT22;14732;51.074;3.788;2023-07-08T08:51:01;40.80;63.40
27226;DHT22;14732;51.074;3.788;2023-07-08T08:53:30;42.90;60.00
27226;DHT22;14732;51.074;3.788;2023-07-08T08:59:01;46.10;52.80
27226;DHT22;14732;51.074;3.788;2023-07-08T09:01:30;47.90;49.20
27226;DHT22;14732;51.074;3.788;2023-07-08T09:04:28;48.90;46.00
27226;DHT22;14732;51.074;3.788;2023-07-08T09:07:11;50.80;42.20
27226;DHT22;14732;51.074;3.788;2023-07-08T09:09:47;52.30;39.80
27226;DHT22;14732;51.074;3.788;2023-07-08T09:12:22;52.70;38.00
27226;DHT22;14732;51.074;3.788;2023-07-08T09:14:50;53.40;36.80
27226;DHT22;14732;51.074;3.788;2023-07-08T09:17:31;53.80;35.80
27226;DHT22;14732;51.074;3.788;2023-07-08T09:23:22;53.10;35.00
27226;DHT22;14732;51.074;3.788;2023-07-08T09:26:02;53.20;35.30
27226;DHT22;14732;51.074;3.788;2023-07-08T09:28:56;52.90;35.40
27226;DHT22;14732;51.074;3.788;2023-07-08T09:31:31;52.40;34.90
27226;DHT22;14732;51.074;3.788;2023-07-08T09:34:37;51.50;35.40
27226;DHT22;14732;51.074;3.788;2023-07-08T09:37:28;49.70;37.50
27226;DHT22;14732;51.074;3.788;2023-07-08T09:39:55;46.40;38.90
27226;DHT22;14732;51.074;3.788;2023-07-08T09:42:33;44.90;43.60
27226;DHT22;14732;51.074;3.788;2023-07-08T09:45:02;43.40;44.70
27226;DHT22;14732;51.074;3.788;2023-07-08T09:47:36;42.00;44.50
27226;DHT22;14732;51.074;3.788;2023-07-08T09:50:22;41.00;45.90
27226;DHT22;14732;51.074;3.788;2023-07-08T09:52:51;40.00;48.10
27226;DHT22;14732;51.074;3.788;2023-07-08T09:55:18;38.70;48.90
27226;DHT22;14732;51.074;3.788;2023-07-08T09:57:54;37.80;49.80
27226;DHT22;14732;51.074;3.788;2023-07-08T10:00:33;37.20;51.70
27226;DHT22;14732;51.074;3.788;2023-07-08T10:03:13;36.60;53.30
27226;DHT22;14732;51.074;3.788;2023-07-08T10:05:43;36.60;53.10
27226;DHT22;14732;51.074;3.788;2023-07-08T10:08:17;36.50;54.50
27226;DHT22;14732;51.074;3.788;2023-07-08T10:13:41;35.90;53.80
27226;DHT22;14732;51.074;3.788;2023-07-08T10:16:15;35.90;56.00
27226;DHT22;14732;51.074;3.788;2023-07-08T10:18:42;35.60;54.90
27226;DHT22;14732;51.074;3.788;2023-07-08T10:24:24;34.60;56.20
27226;DHT22;14732;51.074;3.788;2023-07-08T10:35:28;34.40;59.20
27226;DHT22;14732;51.074;3.788;2023-07-08T11:03:15;34.20;55.00
27226;DHT22;14732;51.074;3.788;2023-07-08T11:08:35;34.30;55.80
27226;DHT22;14732;51.074;3.788;2023-07-08T11:19:35;34.60;54.70
27226;DHT22;14732;51.074;3.788;2023-07-08T11:22:08;34.70;55.90
27226;DHT22;14732;51.074;3.788;2023-07-08T11:24:39;34.60;55.00
27226;DHT22;14732;51.074;3.788;2023-07-08T11:27:15;34.50;54.10
27226;DHT22;14732;51.074;3.788;2023-07-08T11:29:54;34.50;56.40
27226;DHT22;14732;51.074;3.788;2023-07-08T11:32:23;34.70;55.50
27226;DHT22;14732;51.074;3.788;2023-07-08T11:34:52;35.10;54.10
27226;DHT22;14732;51.074;3.788;2023-07-08T11:37:19;35.00;53.20
27226;DHT22;14732;51.074;3.788;2023-07-08T11:42:47;34.50;56.40
27226;DHT22;14732;51.074;3.788;2023-07-08T11:45:24;34.70;56.90
27226;DHT22;14732;51.074;3.788;2023-07-08T11:47:51;34.70;55.60
27226;DHT22;14732;51.074;3.788;2023-07-08T11:50:32;34.80;57.40
27226;DHT22;14732;51.074;3.788;2023-07-08T11:53:10;34.80;56.00
27226;DHT22;14732;51.074;3.788;2023-07-08T12:01:21;35.10;54.30
27226;DHT22;14732;51.074;3.788;2023-07-08T12:03:58;34.90;54.80
27226;DHT22;14732;51.074;3.788;2023-07-08T12:08:54;35.10;54.50
27226;DHT22;14732;51.074;3.788;2023-07-08T12:11:28;35.20;55.30
27226;DHT22;14732;51.074;3.788;2023-07-08T12:13:58;34.90;55.40
27226;DHT22;14732;51.074;3.788;2023-07-08T12:16:24;35.00;54.70
27226;DHT22;14732;51.074;3.788;2023-07-08T12:18:52;35.30;54.30
27226;DHT22;14732;51.074;3.788;2023-07-08T12:21:19;35.20;55.60
27226;DHT22;14732;51.074;3.788;2023-07-08T12:23:47;35.20;55.60
27226;DHT22;14732;51.074;3.788;2023-07-08T12:26:14;35.20;55.50
27226;DHT22;14732;51.074;3.788;2023-07-08T12:28:40;35.20;55.60
27226;DHT22;14732;51.074;3.788;2023-07-08T12:31:17;35.20;55.10
27226;DHT22;14732;51.074;3.788;2023-07-08T12:33:44;35.20;55.90
27226;DHT22;14732;51.074;3.788;2023-07-08T12:36:13;35.20;55.10
27226;DHT22;14732;51.074;3.788;2023-07-08T12:38:42;35.20;58.50
27226;DHT22;14732;51.074;3.788;2023-07-08T12:41:14;34.80;56.10
27226;DHT22;14732;51.074;3.788;2023-07-08T12:43:40;34.70;55.50
27226;DHT22;14732;51.074;3.788;2023-07-08T12:46:09;34.70;55.50
27226;DHT22;14732;51.074;3.788;2023-07-08T12:48:36;34.70;56.40
27226;DHT22;14732;51.074;3.788;2023-07-08T12:51:03;34.40;55.90
27226;DHT22;14732;51.074;3.788;2023-07-08T12:53:29;34.80;55.80
27226;DHT22;14732;51.074;3.788;2023-07-08T12:55:58;34.90;56.40
27226;DHT22;14732;51.074;3.788;2023-07-08T12:58:27;35.20;54.70
27226;DHT22;14732;51.074;3.788;2023-07-08T13:00:54;35.50;56.30
27226;DHT22;14732;51.074;3.788;2023-07-08T13:03:23;35.90;55.30
27226;DHT22;14732;51.074;3.788;2023-07-08T13:05:49;36.30;56.80
27226;DHT22;14732;51.074;3.788;2023-07-08T13:08:18;36.10;54.70
27226;DHT22;14732;51.074;3.788;2023-07-08T13:10:45;35.80;55.30
27226;DHT22;14732;51.074;3.788;2023-07-08T13:13:15;36.10;55.60
27226;DHT22;14732;51.074;3.788;2023-07-08T13:15:42;36.30;55.50
27226;DHT22;14732;51.074;3.788;2023-07-08T13:18:21;36.60;56.20
27226;DHT22;14732;51.074;3.788;2023-07-08T13:20:51;36.80;55.00
27226;DHT22;14732;51.074;3.788;2023-07-08T13:23:18;37.10;55.40
27226;DHT22;14732;51.074;3.788;2023-07-08T13:25:48;37.30;56.30
27226;DHT22;14732;51.074;3.788;2023-07-08T13:28:38;37.40;55.30
27226;DHT22;14732;51.074;3.788;2023-07-08T13:33:54;37.70;54.90
27226;DHT22;14732;51.074;3.788;2023-07-08T13:36:27;37.80;53.80
27226;DHT22;14732;51.074;3.788;2023-07-08T13:38:53;37.50;55.50
27226;DHT22;14732;51.074;3.788;2023-07-08T13:41:23;37.30;54.00
27226;DHT22;14732;51.074;3.788;2023-07-08T13:43:49;37.10;54.90
27226;DHT22;14732;51.074;3.788;2023-07-08T13:55:00;37.40;56.50
27226;DHT22;14732;51.074;3.788;2023-07-08T13:57:32;37.50;57.80
27226;DHT22;14732;51.074;3.788;2023-07-08T13:59:58;37.40;57.00
27226;DHT22;14732;51.074;3.788;2023-07-08T14:02:30;37.20;56.70
27226;DHT22;14732;51.074;3.788;2023-07-08T14:04:57;36.90;56.60
27226;DHT22;14732;51.074;3.788;2023-07-08T14:07:26;36.80;57.60
27226;DHT22;14732;51.074;3.788;2023-07-08T14:09:52;36.90;57.80
27226;DHT22;14732;51.074;3.788;2023-07-08T14:12:20;36.90;57.90
27226;DHT22;14732;51.074;3.788;2023-07-08T14:14:45;36.40;57.00
27226;DHT22;14732;51.074;3.788;2023-07-08T14:17:16;36.10;58.00
27226;DHT22;14732;51.074;3.788;2023-07-08T14:19:44;35.60;59.60
27226;DHT22;14732;51.074;3.788;2023-07-08T14:22:26;36.00;60.60
27226;DHT22;14732;51.074;3.788;2023-07-08T14:24:53;36.40;60.90
27226;DHT22;14732;51.074;3.788;2023-07-08T14:27:18;36.60;59.70
27226;DHT22;14732;51.074;3.788;2023-07-08T14:29:49;36.60;58.60
27226;DHT22;14732;51.074;3.788;2023-07-08T14:32:27;36.90;59.00
27226;DHT22;14732;51.074;3.788;2023-07-08T14:34:56;37.10;57.80
27226;DHT22;14732;51.074;3.788;2023-07-08T14:37:23;37.30;58.20
27226;DHT22;14732;51.074;3.788;2023-07-08T14:39:48;37.30;58.50
27226;DHT22;14732;51.074;3.788;2023-07-08T14:42:16;37.10;58.90
27226;DHT22;14732;51.074;3.788;2023-07-08T14:44:47;37.00;59.50
27226;DHT22;14732;51.074;3.788;2023-07-08T14:47:16;36.90;59.30
27226;DHT22;14732;51.074;3.788;2023-07-08T14:49:42;37.00;59.70
27226;DHT22;14732;51.074;3.788;2023-07-08T14:52:08;36.80;59.10
27226;DHT22;14732;51.074;3.788;2023-07-08T14:54:34;35.90;59.70
27226;DHT22;14732;51.074;3.788;2023-07-08T14:57:00;35.90;60.00
27226;DHT22;14732;51.074;3.788;2023-07-08T14:59:30;35.90;60.40
27226;DHT22;14732;51.074;3.788;2023-07-08T15:01:58;35.80;60.90
27226;DHT22;14732;51.074;3.788;2023-07-08T15:04:24;35.90;62.00
27226;DHT22;14732;51.074;3.788;2023-07-08T15:06:50;36.00;60.70
27226;DHT22;14732;51.074;3.788;2023-07-08T15:09:17;36.10;62.00
27226;DHT22;14732;51.074;3.788;2023-07-08T15:11:44;36.10;61.80
27226;DHT22;14732;51.074;3.788;2023-07-08T15:14:20;36.10;63.10
27226;DHT22;14732;51.074;3.788;2023-07-08T15:16:47;36.20;61.60
27226;DHT22;14732;51.074;3.788;2023-07-08T15:19:13;36.10;63.00
27226;DHT22;14732;51.074;3.788;2023-07-08T15:21:39;35.90;63.40
27226;DHT22;14732;51.074;3.788;2023-07-08T15:24:09;35.60;64.90
27226;DHT22;14732;51.074;3.788;2023-07-08T15:26:37;35.60;63.70
27226;DHT22;14732;51.074;3.788;2023-07-08T15:29:03;35.10;65.20
27226;DHT22;14732;51.074;3.788;2023-07-08T15:31:32;34.90;65.90
27226;DHT22;14732;51.074;3.788;2023-07-08T15:33:59;34.70;66.50
27226;DHT22;14732;51.074;3.788;2023-07-08T15:36:24;34.50;67.50
27226;DHT22;14732;51.074;3.788;2023-07-08T15:38:50;34.70;66.80
27226;DHT22;14732;51.074;3.788;2023-07-08T15:41:20;34.50;67.80
27226;DHT22;14732;51.074;3.788;2023-07-08T15:43:47;34.40;68.90
27226;DHT22;14732;51.074;3.788;2023-07-08T15:46:12;34.30;69.30
27226;DHT22;14732;51.074;3.788;2023-07-08T15:48:38;34.30;70.00
27226;DHT22;14732;51.074;3.788;2023-07-08T15:51:04;34.40;70.10
27226;DHT22;14732;51.074;3.788;2023-07-08T15:53:30;34.30;70.60
27226;DHT22;14732;51.074;3.788;2023-07-08T15:55:55;34.50;71.50
27226;DHT22;14732;51.074;3.788;2023-07-08T15:58:25;34.70;69.40
27226;DHT22;14732;51.074;3.788;2023-07-08T16:00:52;34.60;69.50
27226;DHT22;14732;51.074;3.788;2023-07-08T16:03:22;34.50;71.30
27226;DHT22;14732;51.074;3.788;2023-07-08T16:05:50;34.70;69.90
27226;DHT22;14732;51.074;3.788;2023-07-08T16:08:15;34.70;68.70
27226;DHT22;14732;51.074;3.788;2023-07-08T16:10:41;34.70;69.90
27226;DHT22;14732;51.074;3.788;2023-07-08T16:13:10;34.60;69.10
27226;DHT22;14732;51.074;3.788;2023-07-08T16:15:37;34.60;69.30
27226;DHT22;14732;51.074;3.788;2023-07-08T16:18:04;34.60;68.90
27226;DHT22;14732;51.074;3.788;2023-07-08T16:20:33;34.50;69.60
27226;DHT22;14732;51.074;3.788;2023-07-08T16:22:59;34.50;69.90
27226;DHT22;14732;51.074;3.788;2023-07-08T16:25:34;34.60;68.90
27226;DHT22;14732;51.074;3.788;2023-07-08T16:28:01;34.50;71.10
27226;DHT22;14732;51.074;3.788;2023-07-08T16:30:28;34.60;70.40
27226;DHT22;14732;51.074;3.788;2023-07-08T16:32:54;34.50;70.40
27226;DHT22;14732;51.074;3.788;2023-07-08T16:35:20;34.50;69.30
27226;DHT22;14732;51.074;3.788;2023-07-08T16:37:48;34.60;69.20
27226;DHT22;14732;51.074;3.788;2023-07-08T16:40:20;34.50;68.20
27226;DHT22;14732;51.074;3.788;2023-07-08T16:42:49;34.40;67.80
27226;DHT22;14732;51.074;3.788;2023-07-08T16:45:18;34.10;67.00
27226;DHT22;14732;51.074;3.788;2023-07-08T16:47:47;33.70;67.70
27226;DHT22;14732;51.074;3.788;2023-07-08T16:50:15;33.70;68.90
27226;DHT22;14732;51.074;3.788;2023-07-08T16:52:41;33.60;68.10
27226;DHT22;14732;51.074;3.788;2023-07-08T16:55:16;33.50;69.10
27226;DHT22;14732;51.074;3.788;2023-07-08T16:57:43;33.50;69.70
27226;DHT22;14732;51.074;3.788;2023-07-08T17:00:15;33.30;70.30
27226;DHT22;14732;51.074;3.788;2023-07-08T17:02:41;33.30;71.00
27226;DHT22;14732;51.074;3.788;2023-07-08T17:05:32;33.20;70.60
27226;DHT22;14732;51.074;3.788;2023-07-08T17:07:59;33.20;71.30
27226;DHT22;14732;51.074;3.788;2023-07-08T17:10:25;33.30;70.60
27226;DHT22;14732;51.074;3.788;2023-07-08T17:12:52;33.40;72.10